sensor_id;sensor_type;location;lat;lon;timestamp;pressure;altitude;pressure_sealevel;temperature;humidity
75166;BME280;63747;48.042;10.088;2023-02-01T00:01:06;95823.22;;;0.57;72.06
75166;BME280;63747;48.042;10.088;2023-02-01T00:04:07;95820.69;;;0.55;72.21
75166;BME280;63747;48.042;10.088;2023-02-01T00:07:11;95812.78;;;0.57;72.36
75166;BME280;63747;48.042;10.088;2023-02-01T00:10:12;95802.03;;;0.61;72.12
75166;BME280;63747;48.042;10.088;2023-02-01T00:13:13;95800.91;;;0.65;71.81
75166;BME280;63747;48.042;10.088;2023-02-01T00:16:22;95802.41;;;0.69;71.69
75166;BME280;63747;48.042;10.088;2023-02-01T00:19:23;95811.13;;;0.68;71.92
75166;BME280;63747;48.042;10.088;2023-02-01T00:22:25;95822.50;;;0.67;71.81
75166;BME280;63747;48.042;10.088;2023-02-01T00:25:26;95822.72;;;0.64;72.18
75166;BME280;63747;48.042;10.088;2023-02-01T00:28:27;95834.25;;;0.60;72.38
75166;BME280;63747;48.042;10.088;2023-02-01T00:31:28;95829.59;;;0.65;72.32
75166;BME280;63747;48.042;10.088;2023-02-01T00:34:34;95827.00;;;0.65;72.58
75166;BME280;63747;48.042;10.088;2023-02-01T00:37:35;95821.03;;;0.63;72.54
75166;BME280;63747;48.042;10.088;2023-02-01T00:40:36;95811.13;;;0.68;72.45
75166;BME280;63747;48.042;10.088;2023-02-01T00:43:39;95801.56;;;0.69;72.53
75166;BME280;63747;48.042;10.088;2023-02-01T00:46:40;95810.94;;;0.71;72.50
75166;BME280;63747;48.042;10.088;2023-02-01T00:49:41;95797.84;;;0.59;73.09
75166;BME280;63747;48.042;10.088;2023-02-01T00:52:42;95798.69;;;0.59;73.14
75166;BME280;63747;48.042;10.088;2023-02-01T00:56:05;95796.06;;;0.59;73.05
75166;BME280;63747;48.042;10.088;2023-02-01T00:59:10;95800.75;;;0.54;73.21
75166;BME280;63747;48.042;10.088;2023-02-01T01:02:12;95802.16;;;0.45;73.49
75166;BME280;63747;48.042;10.088;2023-02-01T01:05:14;95797.06;;;0.44;73.70
75166;BME280;63747;48.042;10.088;2023-02-01T01:08:15;95806.66;;;0.43;73.91
75166;BME280;63747;48.042;10.088;2023-02-01T01:11:19;95800.41;;;0.46;73.94
75166;BME280;63747;48.042;10.088;2023-02-01T01:14:21;95807.00;;;0.51;73.69
75166;BME280;63747;48.042;10.088;2023-02-01T01:17:24;95805.44;;;0.49;73.67
75166;BME280;63747;48.042;10.088;2023-02-01T01:20:26;95807.28;;;0.47;73.88
75166;BME280;63747;48.042;10.088;2023-02-01T01:23:27;95786.81;;;0.41;74.08
75166;BME280;63747;48.042;10.088;2023-02-01T01:26:29;95791.28;;;0.39;74.21
75166;BME280;63747;48.042;10.088;2023-02-01T01:29:30;95776.38;;;0.41;74.23
75166;BME280;63747;48.042;10.088;2023-02-01T01:32:31;95766.59;;;0.44;73.97
75166;BME280;63747;48.042;10.088;2023-02-01T01:35:33;95768.38;;;0.44;74.15
75166;BME280;63747;48.042;10.088;2023-02-01T01:38:34;95759.88;;;0.40;74.23
75166;BME280;63747;48.042;10.088;2023-02-01T01:41:35;95764.28;;;0.40;74.36
75166;BME280;63747;48.042;10.088;2023-02-01T01:48:07;95780.56;;;0.43;74.05
75166;BME280;63747;48.042;10.088;2023-02-01T01:51:11;95769.31;;;0.43;73.99
75166;BME280;63747;48.042;10.088;2023-02-01T01:54:19;95760.66;;;0.42;74.11
75166;BME280;63747;48.042;10.088;2023-02-01T01:57:34;95763.34;;;0.41;74.10
75166;BME280;63747;48.042;10.088;2023-02-01T02:00:37;95760.09;;;0.37;74.29
75166;BME280;63747;48.042;10.088;2023-02-01T02:03:43;95754.88;;;0.37;74.32
75166;BME280;63747;48.042;10.088;2023-02-01T02:06:57;95756.66;;;0.37;74.19
75166;BME280;63747;48.042;10.088;2023-02-01T02:10:00;95765.41;;;0.36;74.35
75166;BME280;63747;48.042;10.088;2023-02-01T02:13:01;95754.78;;;0.39;74.21
75166;BME280;63747;48.042;10.088;2023-02-01T02:26:35;95755.63;;;0.39;73.91
75166;BME280;63747;48.042;10.088;2023-02-01T02:43:11;95744.00;;;0.31;73.51
75166;BME280;63747;48.042;10.088;2023-02-01T02:46:37;95750.06;;;0.31;73.57
75166;BME280;63747;48.042;10.088;2023-02-01T02:50:11;95744.44;;;0.37;73.49
75166;BME280;63747;48.042;10.088;2023-02-01T02:53:51;95740.91;;;0.38;73.37
75166;BME280;63747;48.042;10.088;2023-02-01T02:57:37;95742.47;;;0.41;73.40
75166;BME280;63747;48.042;10.088;2023-02-01T03:00:57;95729.34;;;0.42;73.23
75166;BME280;63747;48.042;10.088;2023-02-01T03:04:16;95730.72;;;0.48;73.22
75166;BME280;63747;48.042;10.088;2023-02-01T03:07:57;95722.69;;;0.51;73.18
75166;BME280;63747;48.042;10.088;2023-02-01T03:11:10;95725.69;;;0.45;72.96
75166;BME280;63747;48.042;10.088;2023-02-01T03:14:13;95728.03;;;0.49;73.03
75166;BME280;63747;48.042;10.088;2023-02-01T03:17:21;95741.78;;;0.51;72.99
75166;BME280;63747;48.042;10.088;2023-02-01T03:20:27;95742.63;;;0.52;73.04
75166;BME280;63747;48.042;10.088;2023-02-01T03:23:32;95744.28;;;0.53;72.86
75166;BME280;63747;48.042;10.088;2023-02-01T03:26:37;95733.13;;;0.51;72.96
75166;BME280;63747;48.042;10.088;2023-02-01T03:33:20;95732.84;;;0.56;72.60
75166;BME280;63747;48.042;10.088;2023-02-01T03:36:29;95733.97;;;0.51;72.59
75166;BME280;63747;48.042;10.088;2023-02-01T03:39:36;95729.69;;;0.50;72.78
75166;BME280;63747;48.042;10.088;2023-02-01T03:42:43;95718.22;;;0.53;72.66
75166;BME280;63747;48.042;10.088;2023-02-01T03:45:49;95727.63;;;0.56;72.42
75166;BME280;63747;48.042;10.088;2023-02-01T03:48:53;95726.44;;;0.47;72.66
75166;BME280;63747;48.042;10.088;2023-02-01T03:51:56;95725.50;;;0.48;72.63
75166;BME280;63747;48.042;10.088;2023-02-01T03:55:01;95732.47;;;0.47;72.53
75166;BME280;63747;48.042;10.088;2023-02-01T03:58:07;95745.13;;;0.54;72.56
75166;BME280;63747;48.042;10.088;2023-02-01T04:01:09;95750.06;;;0.58;72.55
75166;BME280;63747;48.042;10.088;2023-02-01T04:04:10;95754.56;;;0.56;72.42
75166;BME280;63747;48.042;10.088;2023-02-01T04:07:10;95761.22;;;0.60;72.32
75166;BME280;63747;48.042;10.088;2023-02-01T04:10:12;95749.97;;;0.60;72.12
75166;BME280;63747;48.042;10.088;2023-02-01T04:13:13;95744.63;;;0.61;72.28
75166;BME280;63747;48.042;10.088;2023-02-01T04:16:14;95749.84;;;0.61;72.14
75166;BME280;63747;48.042;10.088;2023-02-01T04:19:14;95753.59;;;0.57;72.01
75166;BME280;63747;48.042;10.088;2023-02-01T04:22:15;95763.00;;;0.60;72.02
75166;BME280;63747;48.042;10.088;2023-02-01T04:25:16;95759.66;;;0.58;72.17
75166;BME280;63747;48.042;10.088;2023-02-01T04:28:17;95761.44;;;0.57;72.10
75166;BME280;63747;48.042;10.088;2023-02-01T04:31:18;95772.88;;;0.55;72.01
75166;BME280;63747;48.042;10.088;2023-02-01T04:34:25;95760.50;;;0.58;72.12
75166;BME280;63747;48.042;10.088;2023-02-01T04:37:26;95773.53;;;0.58;72.13
75166;BME280;63747;48.042;10.088;2023-02-01T04:40:27;95760.38;;;0.60;71.93
75166;BME280;63747;48.042;10.088;2023-02-01T04:43:27;95750.72;;;0.62;72.09
75166;BME280;63747;48.042;10.088;2023-02-01T04:46:28;95752.47;;;0.61;72.06
75166;BME280;63747;48.042;10.088;2023-02-01T04:49:29;95751.84;;;0.58;72.11
75166;BME280;63747;48.042;10.088;2023-02-01T04:52:29;95754.44;;;0.58;71.99
75166;BME280;63747;48.042;10.088;2023-02-01T04:55:30;95745.97;;;0.54;72.17
75166;BME280;63747;48.042;10.088;2023-02-01T04:58:31;95738.91;;;0.56;71.97
75166;BME280;63747;48.042;10.088;2023-02-01T05:01:31;95735.34;;;0.57;71.93
75166;BME280;63747;48.042;10.088;2023-02-01T05:04:32;95735.06;;;0.62;72.09
75166;BME280;63747;48.042;10.088;2023-02-01T05:07:33;95742.13;;;0.60;71.82
75166;BME280;63747;48.042;10.088;2023-02-01T05:10:33;95728.06;;;0.62;71.73
75166;BME280;63747;48.042;10.088;2023-02-01T05:13:34;95735.69;;;0.65;71.64
75166;BME280;63747;48.042;10.088;2023-02-01T05:16:50;95747.44;;;0.58;71.63
75166;BME280;63747;48.042;10.088;2023-02-01T05:19:51;95752.56;;;0.60;71.66
75166;BME280;63747;48.042;10.088;2023-02-01T05:22:51;95764.78;;;0.59;71.85
75166;BME280;63747;48.042;10.088;2023-02-01T05:25:52;95759.44;;;0.61;71.67
75166;BME280;63747;48.042;10.088;2023-02-01T05:28:53;95775.09;;;0.61;71.65
75166;BME280;63747;48.042;10.088;2023-02-01T05:31:54;95768.22;;;0.60;71.56
75166;BME280;63747;48.042;10.088;2023-02-01T05:34:54;95775.09;;;0.61;71.52
75166;BME280;63747;48.042;10.088;2023-02-01T05:37:55;95770.19;;;0.56;71.67
75166;BME280;63747;48.042;10.088;2023-02-01T05:40:56;95761.53;;;0.56;71.70
75166;BME280;63747;48.042;10.088;2023-02-01T05:43:57;95771.88;;;0.57;71.53
75166;BME280;63747;48.042;10.088;2023-02-01T05:46:57;95786.97;;;0.52;71.62
75166;BME280;63747;48.042;10.088;2023-02-01T05:49:58;95769.66;;;0.51;71.85
75166;BME280;63747;48.042;10.088;2023-02-01T05:52:58;95776.44;;;0.54;71.92
75166;BME280;63747;48.042;10.088;2023-02-01T05:55:59;95777.09;;;0.57;71.65
75166;BME280;63747;48.042;10.088;2023-02-01T05:59:00;95761.44;;;0.57;71.79
75166;BME280;63747;48.042;10.088;2023-02-01T06:02:01;95766.00;;;0.54;71.86
75166;BME280;63747;48.042;10.088;2023-02-01T06:05:02;95774.22;;;0.47;71.87
75166;BME280;63747;48.042;10.088;2023-02-01T06:08:02;95794.25;;;0.47;71.99
75166;BME280;63747;48.042;10.088;2023-02-01T06:11:04;95774.97;;;0.49;72.14
75166;BME280;63747;48.042;10.088;2023-02-01T06:14:05;95775.81;;;0.50;72.20
75166;BME280;63747;48.042;10.088;2023-02-01T06:17:07;95773.75;;;0.55;71.92
75166;BME280;63747;48.042;10.088;2023-02-01T06:20:09;95769.66;;;0.51;72.06
75166;BME280;63747;48.042;10.088;2023-02-01T06:23:10;95766.22;;;0.50;72.17
75166;BME280;63747;48.042;10.088;2023-02-01T06:26:11;95778.41;;;0.50;72.13
75166;BME280;63747;48.042;10.088;2023-02-01T06:29:12;95772.53;;;0.46;72.39
75166;BME280;63747;48.042;10.088;2023-02-01T06:32:12;95770.59;;;0.50;72.17
75166;BME280;63747;48.042;10.088;2023-02-01T06:35:13;95773.00;;;0.53;72.27
75166;BME280;63747;48.042;10.088;2023-02-01T06:38:15;95783.41;;;0.53;72.26
75166;BME280;63747;48.042;10.088;2023-02-01T06:41:17;95784.38;;;0.52;72.25
75166;BME280;63747;48.042;10.088;2023-02-01T06:44:20;95782.31;;;0.57;72.00
75166;BME280;63747;48.042;10.088;2023-02-01T06:47:21;95779.47;;;0.60;71.83
75166;BME280;63747;48.042;10.088;2023-02-01T06:50:21;95777.81;;;0.59;71.66
75166;BME280;63747;48.042;10.088;2023-02-01T06:53:23;95776.53;;;0.52;71.80
75166;BME280;63747;48.042;10.088;2023-02-01T06:56:24;95779.81;;;0.56;71.82
75166;BME280;63747;48.042;10.088;2023-02-01T06:59:25;95772.16;;;0.53;71.89
75166;BME280;63747;48.042;10.088;2023-02-01T07:02:25;95778.31;;;0.51;72.04
75166;BME280;63747;48.042;10.088;2023-02-01T07:05:26;95766.31;;;0.49;72.01
75166;BME280;63747;48.042;10.088;2023-02-01T07:08:27;95766.31;;;0.49;71.84
75166;BME280;63747;48.042;10.088;2023-02-01T07:11:28;95762.00;;;0.48;72.03
75166;BME280;63747;48.042;10.088;2023-02-01T07:14:30;95777.75;;;0.46;72.26
75166;BME280;63747;48.042;10.088;2023-02-01T07:17:31;95778.06;;;0.42;72.27
75166;BME280;63747;48.042;10.088;2023-02-01T07:20:31;95774.31;;;0.46;72.25
75166;BME280;63747;48.042;10.088;2023-02-01T07:23:32;95783.91;;;0.45;72.25
75166;BME280;63747;48.042;10.088;2023-02-01T07:26:33;95790.91;;;0.45;72.30
75166;BME280;63747;48.042;10.088;2023-02-01T07:29:33;95777.47;;;0.51;72.02
75166;BME280;63747;48.042;10.088;2023-02-01T07:32:34;95779.16;;;0.52;72.15
75166;BME280;63747;48.042;10.088;2023-02-01T07:35:35;95754.00;;;0.51;72.06
75166;BME280;63747;48.042;10.088;2023-02-01T07:38:35;95770.59;;;0.50;72.13
75166;BME280;63747;48.042;10.088;2023-02-01T07:41:36;95794.63;;;0.55;72.23
75166;BME280;63747;48.042;10.088;2023-02-01T07:44:37;95785.63;;;0.59;72.11
75166;BME280;63747;48.042;10.088;2023-02-01T07:47:37;95786.78;;;0.55;72.10
75166;BME280;63747;48.042;10.088;2023-02-01T07:50:38;95796.06;;;0.59;71.95
75166;BME280;63747;48.042;10.088;2023-02-01T07:53:39;95794.19;;;0.61;71.87
75166;BME280;63747;48.042;10.088;2023-02-01T07:56:40;95783.13;;;0.58;72.10
75166;BME280;63747;48.042;10.088;2023-02-01T07:59:40;95792.34;;;0.63;72.07
75166;BME280;63747;48.042;10.088;2023-02-01T08:03:03;95779.00;;;0.68;71.68
75166;BME280;63747;48.042;10.088;2023-02-01T08:06:05;95792.69;;;0.71;71.85
75166;BME280;63747;48.042;10.088;2023-02-01T08:09:06;95810.66;;;0.76;71.71
75166;BME280;63747;48.042;10.088;2023-02-01T08:12:11;95811.09;;;0.83;71.68
75166;BME280;63747;48.042;10.088;2023-02-01T08:15:11;95815.56;;;0.81;71.60
75166;BME280;63747;48.042;10.088;2023-02-01T08:18:12;95816.13;;;0.86;71.57
75166;BME280;63747;48.042;10.088;2023-02-01T08:21:19;95833.53;;;0.85;71.61
75166;BME280;63747;48.042;10.088;2023-02-01T08:24:20;95819.78;;;0.83;71.41
75166;BME280;63747;48.042;10.088;2023-02-01T08:27:21;95832.09;;;0.94;71.42
75166;BME280;63747;48.042;10.088;2023-02-01T08:30:22;95823.44;;;0.93;71.43
75166;BME280;63747;48.042;10.088;2023-02-01T08:33:22;95841.22;;;1.01;71.50
75166;BME280;63747;48.042;10.088;2023-02-01T08:36:24;95842.56;;;0.94;71.23
75166;BME280;63747;48.042;10.088;2023-02-01T08:39:26;95842.75;;;0.91;71.45
75166;BME280;63747;48.042;10.088;2023-02-01T08:42:26;95825.22;;;0.93;71.38
75166;BME280;63747;48.042;10.088;2023-02-01T08:45:46;95822.94;;;1.01;71.26
75166;BME280;63747;48.042;10.088;2023-02-01T08:48:47;95820.69;;;1.09;71.18
75166;BME280;63747;48.042;10.088;2023-02-01T08:51:48;95800.09;;;1.04;71.13
75166;BME280;63747;48.042;10.088;2023-02-01T08:54:49;95811.91;;;1.10;71.21
75166;BME280;63747;48.042;10.088;2023-02-01T08:57:49;95813.78;;;1.08;71.07
75166;BME280;63747;48.042;10.088;2023-02-01T09:00:50;95811.91;;;1.10;70.86
75166;BME280;63747;48.042;10.088;2023-02-01T09:03:51;95815.47;;;1.09;70.68
75166;BME280;63747;48.042;10.088;2023-02-01T09:06:51;95813.03;;;1.06;70.88
75166;BME280;63747;48.042;10.088;2023-02-01T09:09:55;95821.09;;;1.03;70.99
75166;BME280;63747;48.042;10.088;2023-02-01T09:12:56;95812.72;;;0.98;71.01
75166;BME280;63747;48.042;10.088;2023-02-01T09:15:57;95826.72;;;0.97;71.04
75166;BME280;63747;48.042;10.088;2023-02-01T09:18:59;95806.22;;;0.91;70.99
75166;BME280;63747;48.042;10.088;2023-02-01T09:22:00;95811.44;;;0.91;70.95
75166;BME280;63747;48.042;10.088;2023-02-01T09:25:01;95804.56;;;0.90;71.15
75166;BME280;63747;48.042;10.088;2023-02-01T09:28:01;95791.50;;;0.90;71.10
75166;BME280;63747;48.042;10.088;2023-02-01T09:31:04;95805.59;;;1.00;71.06
75166;BME280;63747;48.042;10.088;2023-02-01T09:34:05;95805.66;;;1.13;70.89
75166;BME280;63747;48.042;10.088;2023-02-01T09:37:06;95815.53;;;1.08;70.84
75166;BME280;63747;48.042;10.088;2023-02-01T09:40:12;95806.69;;;1.10;70.59
75166;BME280;63747;48.042;10.088;2023-02-01T09:43:48;95815.69;;;1.19;70.56
75166;BME280;63747;48.042;10.088;2023-02-01T09:46:55;95812.97;;;1.20;70.42
75166;BME280;63747;48.042;10.088;2023-02-01T09:50:02;95810.34;;;1.20;70.54
75166;BME280;63747;48.042;10.088;2023-02-01T09:53:12;95822.41;;;1.36;70.34
75166;BME280;63747;48.042;10.088;2023-02-01T09:56:23;95820.75;;;1.47;70.31
75166;BME280;63747;48.042;10.088;2023-02-01T09:59:33;95828.06;;;1.55;70.22
75166;BME280;63747;48.042;10.088;2023-02-01T10:02:38;95828.41;;;1.50;69.93
75166;BME280;63747;48.042;10.088;2023-02-01T10:09:20;95847.53;;;1.51;69.86
75166;BME280;63747;48.042;10.088;2023-02-01T10:23:25;95852.31;;;1.70;69.53
75166;BME280;63747;48.042;10.088;2023-02-01T10:26:33;95851.06;;;1.63;69.38
75166;BME280;63747;48.042;10.088;2023-02-01T10:29:44;95846.06;;;1.59;69.44
75166;BME280;63747;48.042;10.088;2023-02-01T10:32:48;95849.38;;;1.49;69.86
75166;BME280;63747;48.042;10.088;2023-02-01T10:35:55;95833.38;;;1.41;69.98
75166;BME280;63747;48.042;10.088;2023-02-01T10:38:59;95841.66;;;1.47;70.15
75166;BME280;63747;48.042;10.088;2023-02-01T10:42:00;95840.63;;;1.63;69.76
75166;BME280;63747;48.042;10.088;2023-02-01T10:45:03;95822.44;;;1.86;69.33
75166;BME280;63747;48.042;10.088;2023-02-01T10:48:04;95824.00;;;2.02;68.95
75166;BME280;63747;48.042;10.088;2023-02-01T10:51:12;95830.72;;;2.42;68.79
75166;BME280;63747;48.042;10.088;2023-02-01T10:54:19;95823.16;;;2.87;67.62
75166;BME280;63747;48.042;10.088;2023-02-01T10:57:23;95822.34;;;2.87;66.93
75166;BME280;63747;48.042;10.088;2023-02-01T11:00:26;95826.66;;;2.75;66.93
75166;BME280;63747;48.042;10.088;2023-02-01T11:06:49;95810.16;;;3.10;65.96
75166;BME280;63747;48.042;10.088;2023-02-01T11:09:53;95824.47;;;3.17;66.06
75166;BME280;63747;48.042;10.088;2023-02-01T11:12:55;95817.56;;;3.16;65.70
75166;BME280;63747;48.042;10.088;2023-02-01T11:15:56;95818.59;;;3.02;65.64
75166;BME280;63747;48.042;10.088;2023-02-01T11:18:58;95830.78;;;2.90;65.75
75166;BME280;63747;48.042;10.088;2023-02-01T11:21:59;95826.50;;;2.65;65.66
75166;BME280;63747;48.042;10.088;2023-02-01T11:25:08;95815.50;;;2.60;66.27
75166;BME280;63747;48.042;10.088;2023-02-01T11:28:10;95819.16;;;2.58;66.47
75166;BME280;63747;48.042;10.088;2023-02-01T11:31:12;95821.38;;;2.51;66.49
75166;BME280;63747;48.042;10.088;2023-02-01T11:34:17;95830.19;;;2.50;66.39
75166;BME280;63747;48.042;10.088;2023-02-01T11:37:23;95815.88;;;2.43;66.73
75166;BME280;63747;48.042;10.088;2023-02-01T11:40:35;95812.09;;;2.47;66.68
75166;BME280;63747;48.042;10.088;2023-02-01T11:43:35;95797.06;;;2.62;66.73
75166;BME280;63747;48.042;10.088;2023-02-01T11:46:36;95802.31;;;2.62;66.49
75166;BME280;63747;48.042;10.088;2023-02-01T11:49:37;95792.91;;;2.59;66.61
75166;BME280;63747;48.042;10.088;2023-02-01T11:56:26;95787.75;;;2.58;66.41
75166;BME280;63747;48.042;10.088;2023-02-01T12:06:18;95778.38;;;2.55;67.18
75166;BME280;63747;48.042;10.088;2023-02-01T12:09:47;95768.53;;;2.59;66.75
75166;BME280;63747;48.042;10.088;2023-02-01T12:13:11;95785.34;;;2.67;66.91
75166;BME280;63747;48.042;10.088;2023-02-01T12:23:02;95756.88;;;2.87;66.55
75166;BME280;63747;48.042;10.088;2023-02-01T12:33:04;95729.78;;;2.99;65.83
75166;BME280;63747;48.042;10.088;2023-02-01T12:36:36;95720.16;;;3.00;65.06
75166;BME280;63747;48.042;10.088;2023-02-01T12:43:13;95724.00;;;2.83;65.66
75166;BME280;63747;48.042;10.088;2023-02-01T12:46:27;95718.38;;;2.76;65.55
75166;BME280;63747;48.042;10.088;2023-02-01T12:49:44;95714.94;;;2.76;65.59
75166;BME280;63747;48.042;10.088;2023-02-01T12:52:49;95723.81;;;2.62;64.93
75166;BME280;63747;48.042;10.088;2023-02-01T12:55:55;95720.78;;;2.55;65.53
75166;BME280;63747;48.042;10.088;2023-02-01T12:59:00;95713.78;;;2.56;65.50
75166;BME280;63747;48.042;10.088;2023-02-01T13:02:19;95713.50;;;2.48;65.31
75166;BME280;63747;48.042;10.088;2023-02-01T13:05:28;95725.81;;;2.58;65.53
75166;BME280;63747;48.042;10.088;2023-02-01T13:09:03;95732.09;;;2.56;64.76
75166;BME280;63747;48.042;10.088;2023-02-01T13:12:34;95721.88;;;2.53;65.50
75166;BME280;63747;48.042;10.088;2023-02-01T13:15:40;95738.03;;;2.58;65.34
75166;BME280;63747;48.042;10.088;2023-02-01T13:18:46;95726.84;;;2.56;65.23
75166;BME280;63747;48.042;10.088;2023-02-01T13:21:53;95734.19;;;2.51;65.48
75166;BME280;63747;48.042;10.088;2023-02-01T13:25:25;95725.19;;;2.55;65.47
75166;BME280;63747;48.042;10.088;2023-02-01T13:28:34;95716.84;;;2.50;65.40
75166;BME280;63747;48.042;10.088;2023-02-01T13:32:15;95722.69;;;2.53;65.30
75166;BME280;63747;48.042;10.088;2023-02-01T13:35:45;95710.38;;;2.42;65.21
75166;BME280;63747;48.042;10.088;2023-02-01T13:42:22;95722.13;;;2.37;65.17
75166;BME280;63747;48.042;10.088;2023-02-01T13:45:30;95719.63;;;2.35;65.69
75166;BME280;63747;48.042;10.088;2023-02-01T13:48:45;95722.22;;;2.35;65.66
75166;BME280;63747;48.042;10.088;2023-02-01T13:51:51;95717.25;;;2.32;65.60
75166;BME280;63747;48.042;10.088;2023-02-01T13:55:02;95711.78;;;2.35;65.55
75166;BME280;63747;48.042;10.088;2023-02-01T14:04:47;95719.84;;;2.32;65.65
75166;BME280;63747;48.042;10.088;2023-02-01T14:11:47;95731.25;;;2.31;65.78
75166;BME280;63747;48.042;10.088;2023-02-01T14:14:48;95729.69;;;2.29;65.69
75166;BME280;63747;48.042;10.088;2023-02-01T14:17:49;95735.16;;;2.26;65.37
75166;BME280;63747;48.042;10.088;2023-02-01T14:20:50;95754.72;;;2.20;65.39
75166;BME280;63747;48.042;10.088;2023-02-01T14:26:55;95773.19;;;1.80;67.79
75166;BME280;63747;48.042;10.088;2023-02-01T14:29:59;95764.22;;;1.46;68.37
75166;BME280;63747;48.042;10.088;2023-02-01T14:33:12;95756.38;;;1.33;69.25
75166;BME280;63747;48.042;10.088;2023-02-01T14:36:18;95754.38;;;1.24;69.63
75166;BME280;63747;48.042;10.088;2023-02-01T14:39:27;95745.63;;;1.25;69.42
75166;BME280;63747;48.042;10.088;2023-02-01T14:45:46;95745.81;;;1.48;69.45
75166;BME280;63747;48.042;10.088;2023-02-01T14:48:56;95732.66;;;1.49;69.70
75166;BME280;63747;48.042;10.088;2023-02-01T14:51:57;95735.25;;;1.62;69.64
75166;BME280;63747;48.042;10.088;2023-02-01T14:55:04;95731.09;;;1.72;69.24
75166;BME280;63747;48.042;10.088;2023-02-01T14:58:15;95738.91;;;1.72;69.28
75166;BME280;63747;48.042;10.088;2023-02-01T15:01:26;95729.31;;;1.73;69.21
75166;BME280;63747;48.042;10.088;2023-02-01T15:04:27;95734.41;;;1.74;69.02
75166;BME280;63747;48.042;10.088;2023-02-01T15:07:28;95738.38;;;1.80;69.12
75166;BME280;63747;48.042;10.088;2023-02-01T15:10:31;95736.72;;;1.79;68.70
75166;BME280;63747;48.042;10.088;2023-02-01T15:13:32;95740.56;;;1.86;68.70
75166;BME280;63747;48.042;10.088;2023-02-01T15:16:33;95742.34;;;1.85;68.46
75166;BME280;63747;48.042;10.088;2023-02-01T15:19:34;95749.25;;;1.86;68.19
75166;BME280;63747;48.042;10.088;2023-02-01T15:22:34;95742.53;;;1.95;67.96
75166;BME280;63747;48.042;10.088;2023-02-01T15:25:37;95744.59;;;2.03;67.74
75166;BME280;63747;48.042;10.088;2023-02-01T15:28:38;95748.16;;;2.02;67.71
75166;BME280;63747;48.042;10.088;2023-02-01T15:31:44;95753.63;;;1.99;67.55
75166;BME280;63747;48.042;10.088;2023-02-01T15:34:49;95756.00;;;2.02;67.01
75166;BME280;63747;48.042;10.088;2023-02-01T15:37:50;95752.88;;;1.97;66.91
75166;BME280;63747;48.042;10.088;2023-02-01T15:47:07;95772.88;;;1.98;66.35
75166;BME280;63747;48.042;10.088;2023-02-01T15:50:12;95776.22;;;2.00;66.06
75166;BME280;63747;48.042;10.088;2023-02-01T15:53:18;95771.94;;;1.99;66.26
75166;BME280;63747;48.042;10.088;2023-02-01T15:56:34;95768.69;;;1.95;66.18
75166;BME280;63747;48.042;10.088;2023-02-01T15:59:42;95764.41;;;1.94;66.19
75166;BME280;63747;48.042;10.088;2023-02-01T16:02:58;95768.28;;;1.88;66.24
75166;BME280;63747;48.042;10.088;2023-02-01T16:06:01;95769.63;;;1.94;66.44
75166;BME280;63747;48.042;10.088;2023-02-01T16:09:10;95773.72;;;1.98;66.04
75166;BME280;63747;48.042;10.088;2023-02-01T16:12:26;95770.16;;;1.99;66.03
75166;BME280;63747;48.042;10.088;2023-02-01T16:15:29;95768.38;;;2.00;65.99
75166;BME280;63747;48.042;10.088;2023-02-01T16:18:30;95775.81;;;1.93;66.19
75166;BME280;63747;48.042;10.088;2023-02-01T16:21:31;95777.47;;;1.94;66.35
75166;BME280;63747;48.042;10.088;2023-02-01T16:24:31;95771.72;;;1.89;66.05
75166;BME280;63747;48.042;10.088;2023-02-01T16:27:33;95779.56;;;1.89;65.86
75166;BME280;63747;48.042;10.088;2023-02-01T16:30:34;95789.00;;;1.92;65.97
75166;BME280;63747;48.042;10.088;2023-02-01T16:33:36;95789.28;;;1.87;65.88
75166;BME280;63747;48.042;10.088;2023-02-01T16:36:36;95793.81;;;1.85;65.55
75166;BME280;63747;48.042;10.088;2023-02-01T16:39:37;95804.34;;;1.83;65.80
75166;BME280;63747;48.042;10.088;2023-02-01T16:42:38;95807.91;;;1.82;65.49
75166;BME280;63747;48.042;10.088;2023-02-01T16:45:39;95802.25;;;1.88;65.58
75166;BME280;63747;48.042;10.088;2023-02-01T16:48:42;95806.03;;;1.84;65.26
75166;BME280;63747;48.042;10.088;2023-02-01T16:51:44;95803.63;;;1.81;65.09
75166;BME280;63747;48.042;10.088;2023-02-01T16:54:45;95798.91;;;1.74;65.42
75166;BME280;63747;48.042;10.088;2023-02-01T16:57:47;95808.75;;;1.70;65.13
75166;BME280;63747;48.042;10.088;2023-02-01T17:00:48;95809.91;;;1.79;65.54
75166;BME280;63747;48.042;10.088;2023-02-01T17:03:50;95806.47;;;1.78;65.07
75166;BME280;63747;48.042;10.088;2023-02-01T17:06:51;95809.06;;;1.78;65.38
75166;BME280;63747;48.042;10.088;2023-02-01T17:09:52;95807.59;;;1.74;65.03
75166;BME280;63747;48.042;10.088;2023-02-01T17:12:53;95814.50;;;1.75;65.16
75166;BME280;63747;48.042;10.088;2023-02-01T17:16:00;95813.75;;;1.73;65.26
75166;BME280;63747;48.042;10.088;2023-02-01T17:19:04;95810.22;;;1.74;65.31
75166;BME280;63747;48.042;10.088;2023-02-01T17:22:07;95796.94;;;1.77;65.13
75166;BME280;63747;48.042;10.088;2023-02-01T17:25:15;95811.47;;;1.81;65.00
75166;BME280;63747;48.042;10.088;2023-02-01T17:28:16;95798.81;;;1.75;65.02
75166;BME280;63747;48.042;10.088;2023-02-01T17:31:17;95812.63;;;1.77;65.11
75166;BME280;63747;48.042;10.088;2023-02-01T17:34:18;95801.41;;;1.75;65.21
75166;BME280;63747;48.042;10.088;2023-02-01T17:37:28;95805.94;;;1.73;65.20
75166;BME280;63747;48.042;10.088;2023-02-01T17:40:29;95811.38;;;1.70;64.68
75166;BME280;63747;48.042;10.088;2023-02-01T17:43:30;95811.47;;;1.69;65.16
75166;BME280;63747;48.042;10.088;2023-02-01T17:46:31;95807.81;;;1.71;65.11
75166;BME280;63747;48.042;10.088;2023-02-01T17:49:32;95812.09;;;1.72;65.05
75166;BME280;63747;48.042;10.088;2023-02-01T17:52:34;95811.47;;;1.69;64.68
75166;BME280;63747;48.042;10.088;2023-02-01T17:55:39;95817.94;;;1.63;64.95
75166;BME280;63747;48.042;10.088;2023-02-01T17:58:40;95828.91;;;1.68;64.87
75166;BME280;63747;48.042;10.088;2023-02-01T18:01:40;95832.28;;;1.70;64.55